createdAt,value
2018-08-04T15:15:06.210Z,61.88
2018-08-04T15:16:05.956Z,67.50
2018-08-04T15:17:05.976Z,67.50
2018-08-04T15:18:06.189Z,61.88
2018-08-04T15:19:05.900Z,61.88
2018-08-04T15:20:05.929Z,67.50
2018-08-04T15:21:05.851Z,67.50
2018-08-04T15:22:05.813Z,67.50
2018-08-04T15:23:05.815Z,67.50
2018-08-04T15:24:05.810Z,67.50
2018-08-04T15:25:05.817Z,67.50
2018-08-04T15:26:05.735Z,67.50
2018-08-04T15:27:05.757Z,73.13
2018-08-04T15:28:05.701Z,78.75
2018-08-04T15:29:05.671Z,90.00
2018-08-04T15:30:05.729Z,95.63
2018-08-04T15:31:05.705Z,95.63
2018-08-04T15:32:05.600Z,95.63
2018-08-04T15:33:05.661Z,95.63
2018-08-04T15:34:05.612Z,95.63
2018-08-04T15:35:05.543Z,84.38
2018-08-04T15:36:05.537Z,73.13
2018-08-04T15:37:05.603Z,67.50
2018-08-04T15:38:05.458Z,67.50
2018-08-04T15:39:05.448Z,67.50
2018-08-04T15:40:05.897Z,61.88
2018-08-04T15:41:06.011Z,61.88
2018-08-04T15:42:05.665Z,56.25
2018-08-04T15:43:06.480Z,56.25
2018-08-04T15:44:05.338Z,50.63
2018-08-04T15:45:06.055Z,50.63
2018-08-04T15:46:05.301Z,50.63
2018-08-04T15:47:05.303Z,56.25
2018-08-04T15:48:05.688Z,56.25
2018-08-04T15:49:05.305Z,61.88
2018-08-04T15:50:05.177Z,61.88
2018-08-04T15:51:05.618Z,61.88
2018-08-04T15:52:05.614Z,61.88
2018-08-04T15:53:05.141Z,61.88
2018-08-04T15:54:05.148Z,61.88
2018-08-04T15:55:05.172Z,61.88
2018-08-04T15:56:05.100Z,61.88
2018-08-04T15:57:05.076Z,61.88
2018-08-04T15:58:05.018Z,61.88
2018-08-04T15:59:05.130Z,61.88
2018-08-04T16:00:04.963Z,61.88
2018-08-04T16:01:04.965Z,61.88
2018-08-04T16:02:05.027Z,56.25
2018-08-04T16:03:05.011Z,56.25
2018-08-04T16:04:04.929Z,56.25
2018-08-04T16:05:05.083Z,56.25
2018-08-04T16:06:04.874Z,50.63
2018-08-04T16:07:04.881Z,50.63
2018-08-04T16:08:04.786Z,56.25
2018-08-04T16:09:04.795Z,56.25
2018-08-04T16:10:04.855Z,56.25
2018-08-04T16:11:04.911Z,56.25
2018-08-04T16:12:04.847Z,56.25
2018-08-04T16:13:04.737Z,56.25
2018-08-04T16:14:04.643Z,56.25
2018-08-04T16:15:04.675Z,56.25
2018-08-04T16:16:04.677Z,56.25
2018-08-04T16:17:04.833Z,56.25
2018-08-04T16:18:04.660Z,56.25
2018-08-04T16:19:04.580Z,56.25
2018-08-04T16:20:04.524Z,56.25
2018-08-04T16:21:04.516Z,56.25
2018-08-04T16:22:04.606Z,56.25
2018-08-04T16:23:04.445Z,56.25
2018-08-04T16:24:04.439Z,56.25
2018-08-04T16:25:04.440Z,56.25
2018-08-04T16:26:04.416Z,50.63
2018-08-04T16:27:04.427Z,50.63
2018-08-04T16:28:04.382Z,50.63
2018-08-04T16:29:04.364Z,50.63
2018-08-04T16:30:04.290Z,50.63
2018-08-04T16:31:04.311Z,50.63
2018-08-04T16:32:04.386Z,50.63
2018-08-04T16:33:04.235Z,50.63
2018-08-04T16:34:04.238Z,56.25
2018-08-04T16:35:04.198Z,56.25
2018-08-04T16:36:04.206Z,56.25
2018-08-04T16:37:04.231Z,50.63
2018-08-04T16:38:04.184Z,56.25
2018-08-04T16:39:04.286Z,50.63
2018-08-04T16:40:04.104Z,50.63
2018-08-04T16:41:04.062Z,50.63
2018-08-04T16:42:04.206Z,56.25
2018-08-04T16:43:04.008Z,61.88
2018-08-04T16:44:03.991Z,61.88
2018-08-04T16:45:03.962Z,61.88
2018-08-04T16:46:03.954Z,61.88
2018-08-04T16:47:03.948Z,61.88
2018-08-04T16:48:04.017Z,61.88
2018-08-04T16:49:03.915Z,56.25
2018-08-04T16:50:03.878Z,50.63
2018-08-04T16:51:03.831Z,45.00
2018-08-04T16:52:03.793Z,45.00
2018-08-04T16:53:04.073Z,45.00
2018-08-04T16:54:04.011Z,45.00
2018-08-04T16:55:03.891Z,45.00
2018-08-04T16:56:03.783Z,45.00
2018-08-04T16:57:03.731Z,39.38
2018-08-04T16:58:03.678Z,39.38
2018-08-04T16:59:04.049Z,39.38
2018-08-04T17:00:03.647Z,39.38
2018-08-04T17:01:03.598Z,39.38
2018-08-04T17:02:03.587Z,39.38
2018-08-04T17:03:03.772Z,39.38
2018-08-04T17:04:03.574Z,39.38
2018-08-04T17:05:03.515Z,39.38
2018-08-04T17:06:03.610Z,39.38
2018-08-04T17:07:03.486Z,45.00
2018-08-04T17:08:03.428Z,45.00
2018-08-04T17:09:03.516Z,50.63
2018-08-04T17:10:03.485Z,50.63
2018-08-04T17:11:03.349Z,56.25
2018-08-04T17:12:03.346Z,56.25
2018-08-04T17:13:03.449Z,61.88
2018-08-04T17:14:03.308Z,61.88
2018-08-04T17:15:03.339Z,56.25
2018-08-04T17:16:03.489Z,78.75
2018-08-04T17:17:03.233Z,61.88
2018-08-04T17:18:03.331Z,90.00
2018-08-04T17:19:03.201Z,78.75
2018-08-04T17:20:03.205Z,67.50
2018-08-04T17:21:03.305Z,61.88
2018-08-04T17:22:03.148Z,56.25
2018-08-04T17:23:03.120Z,56.25
2018-08-04T17:24:03.068Z,50.63
2018-08-04T17:25:03.040Z,50.63
2018-08-04T17:26:03.190Z,50.63
2018-08-04T17:27:03.032Z,56.25
2018-08-04T17:28:02.969Z,61.88
2018-08-04T17:29:02.988Z,61.88
2018-08-04T17:30:03.070Z,61.88
2018-08-04T17:31:02.919Z,61.88
2018-08-04T17:32:03.004Z,56.25
2018-08-04T17:33:02.890Z,50.63
2018-08-04T17:34:02.881Z,45.00
2018-08-04T17:35:02.807Z,45.00
2018-08-04T17:36:02.833Z,39.38
2018-08-04T17:37:02.882Z,33.75
2018-08-04T17:38:02.840Z,28.13
2018-08-04T17:39:02.828Z,28.13
2018-08-04T17:40:02.706Z,28.13
2018-08-04T17:41:02.698Z,28.13
2018-08-04T17:42:02.712Z,28.13
2018-08-04T17:43:02.633Z,28.13
2018-08-04T17:44:02.645Z,28.13
2018-08-04T17:45:02.678Z,28.13
2018-08-04T17:46:02.584Z,28.13
2018-08-04T17:47:02.803Z,33.75
2018-08-04T17:48:02.708Z,33.75
2018-08-04T17:49:02.515Z,33.75
2018-08-04T17:50:02.468Z,33.75
2018-08-04T17:51:02.487Z,33.75
2018-08-04T17:52:02.457Z,33.75
2018-08-04T17:53:02.522Z,33.75
2018-08-04T17:54:02.388Z,33.75
2018-08-04T17:55:02.336Z,33.75
2018-08-04T17:56:02.374Z,33.75
2018-08-04T17:57:02.424Z,33.75
2018-08-04T17:58:02.357Z,33.75
2018-08-04T17:59:02.288Z,33.75
2018-08-04T18:00:02.288Z,33.75
2018-08-04T18:01:02.232Z,33.75
2018-08-04T18:02:02.239Z,28.13
2018-08-04T18:03:02.394Z,28.13
2018-08-04T18:04:02.205Z,28.13
2018-08-04T18:05:02.138Z,33.75
2018-08-04T18:06:02.132Z,33.75
2018-08-04T18:07:02.105Z,33.75
2018-08-04T18:08:02.168Z,39.38
2018-08-04T18:09:02.161Z,39.38
2018-08-04T18:10:02.042Z,45.00
2018-08-04T18:11:01.989Z,45.00
2018-08-04T18:12:01.970Z,45.00
2018-08-04T18:13:01.939Z,45.00
2018-08-04T18:14:01.950Z,39.38
2018-08-04T18:15:02.081Z,39.38
2018-08-04T18:16:01.952Z,33.75
2018-08-04T18:17:01.871Z,33.75
2018-08-04T18:18:01.858Z,33.75
2018-08-04T18:19:01.884Z,28.13
2018-08-04T18:20:01.919Z,33.75
2018-08-04T18:21:01.836Z,33.75
2018-08-04T18:22:01.853Z,33.75
2018-08-04T18:23:01.722Z,33.75
2018-08-04T18:24:01.743Z,33.75
2018-08-04T18:25:01.778Z,33.75
2018-08-04T18:26:01.677Z,33.75
2018-08-04T18:27:01.705Z,33.75
2018-08-04T18:28:01.628Z,39.38
2018-08-04T18:29:01.589Z,45.00
2018-08-04T18:30:01.593Z,45.00
2018-08-04T18:31:01.669Z,39.38
2018-08-04T18:32:01.526Z,33.75
2018-08-04T18:33:01.618Z,33.75
2018-08-04T18:34:01.599Z,33.75
2018-08-04T18:35:01.431Z,33.75
2018-08-04T18:36:01.403Z,33.75
2018-08-04T18:37:01.706Z,33.75
2018-08-04T18:38:01.510Z,33.75
2018-08-04T18:39:01.387Z,33.75
2018-08-04T18:40:01.367Z,39.38
2018-08-04T18:41:01.437Z,33.75
2018-08-04T18:42:01.270Z,33.75
2018-08-04T18:43:01.337Z,33.75
2018-08-04T18:44:01.357Z,33.75
2018-08-04T18:45:01.295Z,28.13
2018-08-04T18:46:01.379Z,28.13
2018-08-04T18:47:01.250Z,28.13
2018-08-04T18:48:01.133Z,28.13
2018-08-04T18:49:01.224Z,28.13
2018-08-04T18:50:01.131Z,28.13
2018-08-04T18:51:01.095Z,22.50
2018-08-04T18:52:01.057Z,22.50
2018-08-04T18:53:01.077Z,22.50
2018-08-04T18:54:01.097Z,22.50
2018-08-04T18:55:00.980Z,22.50
2018-08-04T18:56:01.134Z,22.50
2018-08-04T18:57:00.940Z,28.13
2018-08-04T18:58:00.921Z,28.13
2018-08-04T18:59:00.961Z,33.75
2018-08-04T19:00:00.829Z,33.75
2018-08-04T19:01:00.914Z,33.75
2018-08-04T19:02:00.816Z,33.75
2018-08-04T19:03:00.802Z,33.75
2018-08-04T19:04:00.852Z,39.38
2018-08-04T19:05:00.742Z,39.38
2018-08-04T19:06:00.730Z,45.00
2018-08-04T19:07:00.709Z,56.25
2018-08-04T19:08:00.663Z,67.50
2018-08-04T19:09:00.716Z,78.75
2018-08-04T19:10:00.620Z,84.38
2018-08-04T19:11:00.567Z,84.38
2018-08-04T19:12:00.557Z,90.00
2018-08-04T19:13:00.547Z,95.63
2018-08-04T19:14:00.644Z,123.75
2018-08-04T19:15:00.470Z,90.00
2018-08-04T19:16:00.480Z,78.75
2018-08-04T19:17:00.438Z,78.75
2018-08-04T19:18:00.400Z,78.75
2018-08-04T19:19:00.395Z,73.13
2018-08-04T19:20:00.455Z,78.75
2018-08-04T19:21:00.372Z,78.75
2018-08-04T19:22:00.348Z,78.75
2018-08-04T19:23:00.310Z,78.75
2018-08-04T19:24:00.280Z,73.13
2018-08-04T19:25:00.267Z,78.75
2018-08-04T19:26:00.301Z,78.75
2018-08-04T19:27:00.210Z,78.75
2018-08-04T19:28:00.328Z,78.75
2018-08-04T19:29:00.178Z,73.13
2018-08-04T19:30:00.139Z,73.13
2018-08-04T19:31:00.118Z,78.75
2018-08-04T19:32:00.193Z,78.75
2018-08-04T19:33:00.055Z,78.75
2018-08-04T19:34:00.065Z,84.38
2018-08-04T19:35:00.036Z,95.63
2018-08-04T19:36:00.000Z,95.63
2018-08-04T19:37:00.102Z,73.13
2018-08-04T19:37:59.968Z,67.50
2018-08-04T19:38:59.949Z,67.50
2018-08-04T19:39:59.931Z,73.13
2018-08-04T19:40:59.873Z,73.13
2018-08-04T19:41:59.974Z,78.75
2018-08-04T19:42:59.815Z,90.00
2018-08-04T19:43:59.808Z,112.50
2018-08-04T19:44:59.786Z,123.75
2018-08-04T19:45:59.765Z,129.38
2018-08-04T19:46:59.827Z,101.25
2018-08-04T19:47:59.751Z,135.00
2018-08-04T19:48:59.702Z,135.00
2018-08-04T19:49:59.707Z,112.50
2018-08-04T19:50:59.691Z,101.25
2018-08-04T19:51:59.727Z,84.38
2018-08-04T19:52:59.603Z,78.75
2018-08-04T19:53:59.606Z,73.13
2018-08-04T19:54:59.576Z,67.50
2018-08-04T19:55:59.572Z,61.88
2018-08-04T19:56:59.552Z,61.88
2018-08-04T19:57:59.622Z,67.50
2018-08-04T19:58:59.497Z,78.75
2018-08-04T19:59:59.461Z,112.50
2018-08-04T20:00:59.452Z,123.75
2018-08-04T20:01:59.430Z,95.63
2018-08-04T20:02:59.396Z,90.00
2018-08-04T20:03:59.430Z,84.38
2018-08-04T20:04:59.326Z,84.38
2018-08-04T20:05:59.301Z,84.38
2018-08-04T20:06:59.314Z,84.38
2018-08-04T20:07:59.295Z,84.38
2018-08-04T20:08:59.247Z,90.00
2018-08-04T20:09:59.328Z,95.63
2018-08-04T20:10:59.209Z,112.50
2018-08-04T20:11:59.161Z,146.25
2018-08-04T20:12:59.166Z,135.00
2018-08-04T20:13:59.151Z,112.50
2018-08-04T20:14:59.199Z,123.75
2018-08-04T20:15:59.096Z,129.38
2018-08-04T20:16:59.056Z,135.00
2018-08-04T20:17:59.033Z,123.75
2018-08-04T20:18:59.024Z,118.13
2018-08-04T20:19:59.111Z,118.13
2018-08-04T20:20:58.987Z,118.13
2018-08-04T20:21:58.969Z,112.50
2018-08-04T20:22:58.959Z,112.50
2018-08-04T20:23:58.905Z,112.50
2018-08-04T20:24:58.975Z,112.50
2018-08-04T20:25:58.870Z,106.88
2018-08-04T20:26:58.832Z,90.00
2018-08-04T20:27:58.812Z,73.13
2018-08-04T20:28:58.820Z,78.75
2018-08-04T20:29:58.866Z,78.75
2018-08-04T20:30:58.780Z,101.25
2018-08-04T20:31:58.755Z,101.25
2018-08-04T20:32:58.719Z,101.25
2018-08-04T20:33:58.674Z,118.13
2018-08-04T20:34:58.760Z,78.75
2018-08-04T20:35:58.672Z,106.88
2018-08-04T20:36:58.626Z,106.88
2018-08-04T20:37:58.585Z,118.13
2018-08-04T20:38:58.601Z,106.88
2018-08-04T20:39:58.654Z,129.38
2018-08-04T20:40:58.523Z,112.50
2018-08-04T20:41:58.495Z,135.00
2018-08-04T20:42:58.476Z,135.00
2018-08-04T20:43:58.486Z,106.88
2018-08-04T20:44:58.438Z,129.38
2018-08-04T20:45:58.509Z,135.00
2018-08-04T20:46:58.399Z,135.00
2018-08-04T20:47:58.387Z,101.25
2018-08-04T20:48:58.378Z,112.50
2018-08-04T20:49:58.317Z,106.88
2018-08-04T20:50:58.308Z,112.50
2018-08-04T20:51:58.408Z,146.25
2018-08-04T20:52:58.327Z,129.38
2018-08-04T20:53:58.232Z,140.63
2018-08-04T20:54:58.208Z,146.25
2018-08-04T20:55:58.226Z,118.13
2018-08-04T20:56:58.263Z,123.75
2018-08-04T20:57:58.132Z,112.50
2018-08-04T20:58:58.124Z,106.88
2018-08-04T20:59:58.102Z,106.88
2018-08-04T21:00:58.095Z,73.13
2018-08-04T21:01:58.198Z,56.25
2018-08-04T21:02:58.064Z,56.25
2018-08-04T21:03:58.019Z,50.63
2018-08-04T21:04:58.017Z,50.63
2018-08-04T21:05:57.981Z,56.25
2018-08-04T21:06:58.038Z,56.25
2018-08-04T21:07:57.923Z,50.63
2018-08-04T21:08:57.915Z,50.63
2018-08-04T21:09:57.900Z,50.63
2018-08-04T21:10:57.901Z,45.00
2018-08-04T21:11:57.922Z,45.00
2018-08-04T21:12:57.859Z,45.00
2018-08-04T21:13:57.819Z,45.00
2018-08-04T21:14:57.775Z,39.38
2018-08-04T21:15:57.781Z,45.00
2018-08-04T21:16:57.875Z,45.00
2018-08-04T21:17:57.714Z,45.00
2018-08-04T21:18:57.762Z,39.38
2018-08-04T21:19:57.668Z,39.38
2018-08-04T21:20:57.675Z,39.38
2018-08-04T21:21:57.660Z,39.38
2018-08-04T21:22:57.612Z,39.38
2018-08-04T21:23:57.595Z,39.38
2018-08-04T21:24:57.558Z,39.38
2018-08-04T21:25:57.553Z,39.38
2018-08-04T21:26:57.543Z,39.38
2018-08-04T21:27:57.597Z,39.38
2018-08-04T21:28:57.466Z,39.38
2018-08-04T21:29:57.474Z,33.75
2018-08-04T21:30:57.427Z,33.75
2018-08-04T21:31:57.428Z,33.75
2018-08-04T21:32:57.396Z,33.75
2018-08-04T21:33:57.384Z,28.13
2018-08-04T21:34:57.375Z,28.13
2018-08-04T21:35:57.377Z,28.13
2018-08-04T21:36:57.271Z,28.13
2018-08-04T21:37:57.290Z,28.13
2018-08-04T21:38:57.369Z,22.50
2018-08-04T21:39:57.235Z,22.50
2018-08-04T21:40:57.226Z,22.50
2018-08-04T21:41:57.192Z,22.50
2018-08-04T21:42:57.177Z,22.50
2018-08-04T21:43:57.210Z,22.50
2018-08-04T21:44:57.127Z,16.88
2018-08-04T21:45:57.079Z,16.88
2018-08-04T21:46:57.068Z,16.88
2018-08-04T21:47:57.034Z,16.88
2018-08-04T21:48:57.061Z,16.88
2018-08-04T21:49:57.019Z,16.88
2018-08-04T21:50:56.971Z,16.88
2018-08-04T21:51:56.925Z,16.88
2018-08-04T21:52:56.912Z,16.88
2018-08-04T21:53:57.003Z,16.88
2018-08-04T21:54:56.881Z,16.88
2018-08-04T21:55:56.905Z,11.25
2018-08-04T21:56:56.823Z,11.25
2018-08-04T21:57:56.810Z,11.25
2018-08-04T21:58:56.904Z,11.25
2018-08-04T21:59:56.737Z,11.25
2018-08-04T22:00:56.738Z,11.25
2018-08-04T22:01:56.875Z,11.25
2018-08-04T22:02:56.683Z,11.25
2018-08-04T22:03:56.787Z,11.25
2018-08-04T22:04:56.634Z,11.25
2018-08-04T22:05:56.625Z,11.25
2018-08-04T22:06:56.578Z,11.25
2018-08-04T22:07:56.604Z,11.25
2018-08-04T22:08:56.573Z,11.25
2018-08-04T22:09:56.642Z,11.25
2018-08-04T22:10:56.496Z,11.25
2018-08-04T22:11:56.498Z,11.25
2018-08-04T22:12:56.515Z,11.25
2018-08-04T22:13:56.448Z,11.25
2018-08-04T22:14:56.422Z,11.25
2018-08-04T22:15:56.497Z,11.25
2018-08-04T22:16:56.385Z,11.25
2018-08-04T22:17:56.375Z,11.25
2018-08-04T22:18:56.319Z,11.25
2018-08-04T22:19:56.286Z,5.63
2018-08-04T22:20:56.259Z,5.63
2018-08-04T22:21:56.361Z,5.63
2018-08-04T22:22:56.244Z,5.63
2018-08-04T22:23:56.222Z,5.63
2018-08-04T22:24:56.213Z,11.25
2018-08-04T22:25:56.124Z,11.25
2018-08-04T22:26:56.156Z,11.25
2018-08-04T22:27:56.114Z,11.25
2018-08-04T22:28:56.059Z,11.25
2018-08-04T22:29:56.086Z,11.25
2018-08-04T22:30:56.132Z,11.25
2018-08-04T22:31:56.038Z,5.63
2018-08-04T22:32:55.996Z,5.63
2018-08-04T22:33:55.960Z,5.63
2018-08-04T22:34:55.909Z,5.63
2018-08-04T22:35:55.905Z,5.63
2018-08-04T22:36:55.942Z,5.63
2018-08-04T22:37:55.861Z,5.63
2018-08-04T22:38:55.822Z,5.63
2018-08-04T22:39:55.876Z,5.63
2018-08-04T22:40:55.772Z,5.63
2018-08-04T22:41:55.833Z,5.63
2018-08-04T22:42:55.750Z,5.63
2018-08-04T22:43:55.751Z,5.63
2018-08-04T22:44:55.678Z,5.63
2018-08-04T22:45:55.682Z,5.63
2018-08-04T22:46:55.634Z,5.63
2018-08-04T22:47:55.693Z,5.63
2018-08-04T22:48:55.585Z,5.63
2018-08-04T22:49:55.592Z,5.63
2018-08-04T22:50:55.541Z,5.63
2018-08-04T22:51:55.563Z,5.63
2018-08-04T22:52:55.488Z,5.63
2018-08-04T22:53:55.603Z,5.63
2018-08-04T22:54:55.465Z,5.63
2018-08-04T22:55:55.474Z,5.63
2018-08-04T22:56:55.426Z,5.63
2018-08-04T22:57:55.362Z,5.63
2018-08-04T22:58:55.370Z,5.63
2018-08-04T22:59:55.404Z,5.63
2018-08-04T23:00:55.331Z,5.63
2018-08-04T23:01:55.373Z,5.63
2018-08-04T23:02:55.284Z,5.63
2018-08-04T23:03:55.251Z,5.63
2018-08-04T23:04:55.313Z,5.63
2018-08-04T23:05:55.203Z,5.63
2018-08-04T23:06:55.151Z,5.63
2018-08-04T23:07:55.114Z,5.63
2018-08-04T23:08:55.112Z,5.63
2018-08-04T23:09:55.255Z,5.63
2018-08-04T23:10:55.082Z,5.63
2018-08-04T23:11:55.062Z,0.00
2018-08-04T23:12:55.000Z,0.00
2018-08-04T23:13:54.976Z,0.00
2018-08-04T23:14:55.076Z,0.00
2018-08-04T23:15:54.959Z,0.00
2018-08-04T23:16:54.915Z,0.00
2018-08-04T23:17:56.769Z,0.00
2018-08-04T23:18:55.066Z,0.00
2018-08-04T23:19:55.137Z,0.00
2018-08-04T23:20:54.823Z,0.00
2018-08-04T23:21:54.846Z,0.00
2018-08-04T23:22:55.071Z,0.00
2018-08-04T23:23:55.290Z,0.00
2018-08-04T23:24:57.305Z,0.00
2018-08-04T23:25:54.705Z,0.00
2018-08-04T23:26:54.668Z,0.00
2018-08-04T23:27:54.760Z,0.00
2018-08-04T23:28:54.623Z,0.00
2018-08-04T23:29:54.612Z,0.00
2018-08-04T23:30:54.604Z,0.00
2018-08-04T23:31:54.545Z,0.00
2018-08-04T23:32:54.529Z,0.00
2018-08-04T23:33:54.509Z,0.00
2018-08-04T23:34:54.491Z,0.00
2018-08-04T23:35:54.421Z,0.00
2018-08-04T23:36:54.677Z,0.00
2018-08-04T23:37:54.943Z,0.00
2018-08-04T23:38:54.868Z,0.00
2018-08-04T23:39:54.336Z,0.00
2018-08-04T23:40:54.551Z,0.00
2018-08-04T23:41:54.318Z,0.00
2018-08-04T23:42:54.359Z,0.00
2018-08-04T23:43:54.396Z,0.00
2018-08-04T23:44:54.329Z,0.00
2018-08-04T23:45:54.816Z,0.00
2018-08-04T23:46:54.401Z,0.00
2018-08-04T23:47:54.891Z,0.00
2018-08-04T23:48:54.149Z,0.00
2018-08-04T23:49:54.117Z,0.00
2018-08-04T23:50:54.122Z,0.00
2018-08-04T23:51:54.078Z,0.00
2018-08-04T23:52:54.043Z,0.00
2018-08-04T23:53:54.685Z,0.00
2018-08-04T23:54:54.035Z,0.00
2018-08-04T23:55:53.951Z,0.00
2018-08-04T23:56:53.926Z,0.00
2018-08-04T23:57:53.986Z,0.00
2018-08-04T23:58:53.874Z,0.00
2018-08-04T23:59:54.046Z,0.00
